sensor_id;sensor_type;location;lat;lon;timestamp;pressure;altitude;pressure_sealevel;temperature;humidity
49393;BME280;35268;42.642;23.308;2023-08-12T00:01:00;94502.28;;;17.05;66.00
49393;BME280;35268;42.642;23.308;2023-08-12T00:03:25;94495.66;;;17.02;66.23
49393;BME280;35268;42.642;23.308;2023-08-12T00:05:52;94492.19;;;17.02;66.17
49393;BME280;35268;42.642;23.308;2023-08-12T00:08:17;94500.59;;;17.00;66.11
49393;BME280;35268;42.642;23.308;2023-08-12T00:10:42;94502.41;;;16.96;66.23
49393;BME280;35268;42.642;23.308;2023-08-12T00:13:09;94498.13;;;16.95;66.24
49393;BME280;35268;42.642;23.308;2023-08-12T00:15:34;94502.41;;;16.96;67.35
49393;BME280;35268;42.642;23.308;2023-08-12T00:18:00;94499.25;;;16.94;67.21
49393;BME280;35268;42.642;23.308;2023-08-12T00:20:25;94498.38;;;16.90;66.51
49393;BME280;35268;42.642;23.308;2023-08-12T00:22:51;94498.69;;;16.89;66.54
49393;BME280;35268;42.642;23.308;2023-08-12T00:25:16;94491.41;;;16.89;66.96
49393;BME280;35268;42.642;23.308;2023-08-12T00:27:42;94486.69;;;16.86;67.10
49393;BME280;35268;42.642;23.308;2023-08-12T00:30:07;94495.44;;;16.83;66.77
49393;BME280;35268;42.642;23.308;2023-08-12T00:32:34;94496.88;;;16.80;66.86
49393;BME280;35268;42.642;23.308;2023-08-12T00:34:59;94489.03;;;16.75;67.31
49393;BME280;35268;42.642;23.308;2023-08-12T00:37:24;94488.22;;;16.75;67.58
49393;BME280;35268;42.642;23.308;2023-08-12T00:39:50;94497.19;;;16.79;66.87
49393;BME280;35268;42.642;23.308;2023-08-12T00:42:15;94489.81;;;16.76;66.13
49393;BME280;35268;42.642;23.308;2023-08-12T00:44:41;94486.56;;;16.70;66.40
49393;BME280;35268;42.642;23.308;2023-08-12T00:47:06;94488.03;;;16.68;66.63
49393;BME280;35268;42.642;23.308;2023-08-12T00:49:32;94485.31;;;16.68;66.40
49393;BME280;35268;42.642;23.308;2023-08-12T00:51:58;94486.44;;;16.67;66.56
49393;BME280;35268;42.642;23.308;2023-08-12T00:54:26;94491.81;;;16.67;66.38
49393;BME280;35268;42.642;23.308;2023-08-12T00:56:52;94480.38;;;16.70;66.18
49393;BME280;35268;42.642;23.308;2023-08-12T00:59:19;94484.19;;;16.69;66.21
49393;BME280;35268;42.642;23.308;2023-08-12T01:01:46;94486.44;;;16.67;66.29
49393;BME280;35268;42.642;23.308;2023-08-12T01:04:12;94484.88;;;16.65;66.48
49393;BME280;35268;42.642;23.308;2023-08-12T01:06:38;94482.19;;;16.65;66.81
49393;BME280;35268;42.642;23.308;2023-08-12T01:09:07;94484.56;;;16.67;66.61
49393;BME280;35268;42.642;23.308;2023-08-12T01:11:35;94481.06;;;16.67;66.39
49393;BME280;35268;42.642;23.308;2023-08-12T01:14:19;94474.00;;;16.62;66.42
49393;BME280;35268;42.642;23.308;2023-08-12T01:16:50;94470.66;;;16.65;65.98
49393;BME280;35268;42.642;23.308;2023-08-12T01:19:43;94477.91;;;16.64;65.90
49393;BME280;35268;42.642;23.308;2023-08-12T01:22:11;94467.50;;;16.63;66.16
49393;BME280;35268;42.642;23.308;2023-08-12T01:24:43;94477.00;;;16.60;65.82
49393;BME280;35268;42.642;23.308;2023-08-12T01:27:10;94471.63;;;16.60;65.80
49393;BME280;35268;42.642;23.308;2023-08-12T01:29:42;94475.56;;;16.63;65.32
49393;BME280;35268;42.642;23.308;2023-08-12T01:32:25;94470.53;;;16.61;65.46
49393;BME280;35268;42.642;23.308;2023-08-12T01:35:01;94470.97;;;16.63;65.23
49393;BME280;35268;42.642;23.308;2023-08-12T01:37:29;94460.09;;;16.60;65.22
49393;BME280;35268;42.642;23.308;2023-08-12T01:39:59;94467.06;;;16.61;65.64
49393;BME280;35268;42.642;23.308;2023-08-12T01:42:25;94469.94;;;16.56;65.06
49393;BME280;35268;42.642;23.308;2023-08-12T01:44:51;94461.31;;;16.50;65.46
49393;BME280;35268;42.642;23.308;2023-08-12T01:47:17;94469.63;;;16.45;65.10
49393;BME280;35268;42.642;23.308;2023-08-12T01:49:42;94472.63;;;16.43;65.76
49393;BME280;35268;42.642;23.308;2023-08-12T01:52:08;94473.97;;;16.37;65.52
49393;BME280;35268;42.642;23.308;2023-08-12T01:54:33;94475.44;;;16.35;65.85
49393;BME280;35268;42.642;23.308;2023-08-12T01:57:01;94473.41;;;16.32;66.10
49393;BME280;35268;42.642;23.308;2023-08-12T01:59:27;94471.41;;;16.29;65.80
49393;BME280;35268;42.642;23.308;2023-08-12T02:01:52;94467.00;;;16.24;65.21
49393;BME280;35268;42.642;23.308;2023-08-12T02:04:18;94467.34;;;16.22;65.58
49393;BME280;35268;42.642;23.308;2023-08-12T02:06:43;94473.06;;;16.21;64.83
49393;BME280;35268;42.642;23.308;2023-08-12T02:09:08;94479.44;;;16.16;64.50
49393;BME280;35268;42.642;23.308;2023-08-12T02:11:34;94473.59;;;16.14;64.80
49393;BME280;35268;42.642;23.308;2023-08-12T02:13:59;94472.03;;;16.13;64.94
49393;BME280;35268;42.642;23.308;2023-08-12T02:16:24;94466.31;;;16.15;65.34
49393;BME280;35268;42.642;23.308;2023-08-12T02:18:50;94472.16;;;16.17;65.60
49393;BME280;35268;42.642;23.308;2023-08-12T02:21:15;94470.91;;;16.14;65.62
49393;BME280;35268;42.642;23.308;2023-08-12T02:23:41;94462.41;;;16.12;65.14
49393;BME280;35268;42.642;23.308;2023-08-12T02:26:06;94466.63;;;16.01;64.89
49393;BME280;35268;42.642;23.308;2023-08-12T02:28:31;94467.53;;;16.05;64.86
49393;BME280;35268;42.642;23.308;2023-08-12T02:30:57;94470.44;;;16.00;64.68
49393;BME280;35268;42.642;23.308;2023-08-12T02:33:22;94471.34;;;16.04;65.00
49393;BME280;35268;42.642;23.308;2023-08-12T02:35:48;94467.53;;;16.05;64.83
49393;BME280;35268;42.642;23.308;2023-08-12T02:38:13;94467.97;;;16.07;64.96
49393;BME280;35268;42.642;23.308;2023-08-12T02:40:38;94465.63;;;16.05;64.64
49393;BME280;35268;42.642;23.308;2023-08-12T02:43:04;94477.19;;;16.06;63.98
49393;BME280;35268;42.642;23.308;2023-08-12T02:45:29;94475.91;;;16.03;63.93
49393;BME280;35268;42.642;23.308;2023-08-12T02:47:55;94477.63;;;16.08;63.86
49393;BME280;35268;42.642;23.308;2023-08-12T02:50:20;94479.97;;;16.10;63.75
49393;BME280;35268;42.642;23.308;2023-08-12T02:52:46;94471.13;;;16.09;63.90
49393;BME280;35268;42.642;23.308;2023-08-12T02:55:11;94475.72;;;16.09;63.79
49393;BME280;35268;42.642;23.308;2023-08-12T02:57:37;94478.84;;;16.11;63.52
49393;BME280;35268;42.642;23.308;2023-08-12T03:00:03;94485.25;;;16.06;64.10
49393;BME280;35268;42.642;23.308;2023-08-12T03:02:29;94485.13;;;16.02;64.00
49393;BME280;35268;42.642;23.308;2023-08-12T03:04:54;94482.44;;;16.02;64.06
49393;BME280;35268;42.642;23.308;2023-08-12T03:07:20;94491.13;;;15.99;64.11
49393;BME280;35268;42.642;23.308;2023-08-12T03:09:45;94481.84;;;15.97;64.80
49393;BME280;35268;42.642;23.308;2023-08-12T03:12:11;94492.59;;;15.97;64.58
49393;BME280;35268;42.642;23.308;2023-08-12T03:14:36;94494.28;;;16.01;64.69
49393;BME280;35268;42.642;23.308;2023-08-12T03:17:02;94484.78;;;16.04;65.09
49393;BME280;35268;42.642;23.308;2023-08-12T03:19:27;94491.06;;;16.08;66.11
49393;BME280;35268;42.642;23.308;2023-08-12T03:21:53;94490.63;;;16.06;66.08
49393;BME280;35268;42.642;23.308;2023-08-12T03:24:18;94491.63;;;16.14;66.14
49393;BME280;35268;42.642;23.308;2023-08-12T03:26:43;94485.47;;;16.13;65.67
49393;BME280;35268;42.642;23.308;2023-08-12T03:29:09;94489.16;;;16.09;65.78
49393;BME280;35268;42.642;23.308;2023-08-12T03:31:34;94488.56;;;16.03;66.43
49393;BME280;35268;42.642;23.308;2023-08-12T03:34:00;94496.97;;;16.01;65.83
49393;BME280;35268;42.642;23.308;2023-08-12T03:36:26;94484.97;;;15.99;65.75
49393;BME280;35268;42.642;23.308;2023-08-12T03:38:51;94499.97;;;15.88;67.32
49393;BME280;35268;42.642;23.308;2023-08-12T03:41:17;94504.44;;;15.83;67.65
49393;BME280;35268;42.642;23.308;2023-08-12T03:43:42;94494.34;;;15.80;68.04
49393;BME280;35268;42.642;23.308;2023-08-12T03:46:07;94491.91;;;15.88;68.47
49393;BME280;35268;42.642;23.308;2023-08-12T03:48:33;94499.28;;;15.91;68.92
49393;BME280;35268;42.642;23.308;2023-08-12T03:50:59;94506.13;;;15.88;69.34
49393;BME280;35268;42.642;23.308;2023-08-12T03:53:24;94502.84;;;15.82;69.02
49393;BME280;35268;42.642;23.308;2023-08-12T03:55:49;94507.91;;;15.84;68.87
49393;BME280;35268;42.642;23.308;2023-08-12T03:58:15;94509.34;;;15.81;68.74
49393;BME280;35268;42.642;23.308;2023-08-12T04:00:43;94502.66;;;15.88;67.08
49393;BME280;35268;42.642;23.308;2023-08-12T04:03:09;94506.81;;;15.97;65.96
49393;BME280;35268;42.642;23.308;2023-08-12T04:05:34;94503.59;;;16.04;66.17
49393;BME280;35268;42.642;23.308;2023-08-12T04:08:00;94498.22;;;16.04;66.61
49393;BME280;35268;42.642;23.308;2023-08-12T04:10:25;94503.06;;;16.11;67.12
49393;BME280;35268;42.642;23.308;2023-08-12T04:12:51;94497.81;;;16.14;67.07
49393;BME280;35268;42.642;23.308;2023-08-12T04:15:16;94500.28;;;16.19;66.29
49393;BME280;35268;42.642;23.308;2023-08-12T04:17:41;94508.38;;;16.32;65.19
49393;BME280;35268;42.642;23.308;2023-08-12T04:20:07;94507.94;;;16.42;64.34
49393;BME280;35268;42.642;23.308;2023-08-12T04:22:33;94503.81;;;16.44;64.06
49393;BME280;35268;42.642;23.308;2023-08-12T04:24:59;94503.13;;;16.48;64.18
49393;BME280;35268;42.642;23.308;2023-08-12T04:27:25;94505.84;;;16.60;63.80
49393;BME280;35268;42.642;23.308;2023-08-12T04:29:50;94506.53;;;16.57;63.47
49393;BME280;35268;42.642;23.308;2023-08-12T04:32:16;94509.31;;;16.60;63.54
49393;BME280;35268;42.642;23.308;2023-08-12T04:34:41;94510.66;;;16.67;62.91
49393;BME280;35268;42.642;23.308;2023-08-12T04:37:06;94509.31;;;16.73;62.38
49393;BME280;35268;42.642;23.308;2023-08-12T04:39:32;94505.97;;;16.76;62.81
49393;BME280;35268;42.642;23.308;2023-08-12T04:41:58;94504.94;;;16.80;63.08
49393;BME280;35268;42.642;23.308;2023-08-12T04:44:23;94510.81;;;16.82;63.02
49393;BME280;35268;42.642;23.308;2023-08-12T04:46:49;94507.56;;;16.89;62.82
49393;BME280;35268;42.642;23.308;2023-08-12T04:49:15;94506.44;;;16.90;62.67
49393;BME280;35268;42.642;23.308;2023-08-12T04:51:41;94510.03;;;16.94;63.07
49393;BME280;35268;42.642;23.308;2023-08-12T04:54:07;94512.03;;;16.97;62.81
49393;BME280;35268;42.642;23.308;2023-08-12T04:56:33;94507.22;;;17.03;63.50
49393;BME280;35268;42.642;23.308;2023-08-12T04:58:58;94510.91;;;17.11;63.06
49393;BME280;35268;42.642;23.308;2023-08-12T05:01:24;94511.03;;;17.14;63.08
49393;BME280;35268;42.642;23.308;2023-08-12T05:03:49;94503.06;;;17.18;62.31
49393;BME280;35268;42.642;23.308;2023-08-12T05:06:15;94515.84;;;17.21;62.83
49393;BME280;35268;42.642;23.308;2023-08-12T05:08:40;94509.69;;;17.20;62.22
49393;BME280;35268;42.642;23.308;2023-08-12T05:11:06;94518.31;;;17.26;61.79
49393;BME280;35268;42.642;23.308;2023-08-12T05:13:31;94520.56;;;17.24;60.80
49393;BME280;35268;42.642;23.308;2023-08-12T05:15:57;94521.22;;;17.21;60.45
49393;BME280;35268;42.642;23.308;2023-08-12T05:18:22;94519.88;;;17.27;60.64
49393;BME280;35268;42.642;23.308;2023-08-12T05:20:52;94532.31;;;17.32;60.10
49393;BME280;35268;42.642;23.308;2023-08-12T05:23:19;94513.91;;;17.34;60.43
49393;BME280;35268;42.642;23.308;2023-08-12T05:25:45;94522.09;;;17.37;60.42
49393;BME280;35268;42.642;23.308;2023-08-12T05:28:11;94527.59;;;17.41;60.21
49393;BME280;35268;42.642;23.308;2023-08-12T05:30:36;94524.34;;;17.48;60.43
49393;BME280;35268;42.642;23.308;2023-08-12T05:33:03;94522.53;;;17.52;59.53
49393;BME280;35268;42.642;23.308;2023-08-12T05:35:28;94531.81;;;17.54;59.72
49393;BME280;35268;42.642;23.308;2023-08-12T05:37:53;94530.81;;;17.59;59.99
49393;BME280;35268;42.642;23.308;2023-08-12T05:40:19;94534.75;;;17.61;59.90
49393;BME280;35268;42.642;23.308;2023-08-12T05:42:44;94534.06;;;17.64;59.53
49393;BME280;35268;42.642;23.308;2023-08-12T05:45:10;94538.44;;;17.69;59.76
49393;BME280;35268;42.642;23.308;2023-08-12T05:47:36;94525.63;;;17.66;59.63
49393;BME280;35268;42.642;23.308;2023-08-12T05:50:01;94530.56;;;17.64;60.04
49393;BME280;35268;42.642;23.308;2023-08-12T05:52:27;94531.03;;;17.66;60.01
49393;BME280;35268;42.642;23.308;2023-08-12T05:54:52;94529.53;;;17.69;60.62
49393;BME280;35268;42.642;23.308;2023-08-12T05:57:18;94531.59;;;17.59;59.73
49393;BME280;35268;42.642;23.308;2023-08-12T05:59:43;94529.53;;;17.69;60.21
49393;BME280;35268;42.642;23.308;2023-08-12T06:02:08;94530.53;;;17.76;59.76
49393;BME280;35268;42.642;23.308;2023-08-12T06:04:35;94524.69;;;17.87;59.96
49393;BME280;35268;42.642;23.308;2023-08-12T06:07:00;94519.41;;;17.90;59.43
49393;BME280;35268;42.642;23.308;2023-08-12T06:09:26;94515.00;;;17.98;59.90
49393;BME280;35268;42.642;23.308;2023-08-12T06:11:51;94518.19;;;17.88;58.76
49393;BME280;35268;42.642;23.308;2023-08-12T06:14:16;94517.69;;;17.98;58.38
49393;BME280;35268;42.642;23.308;2023-08-12T06:16:42;94508.13;;;18.00;58.82
49393;BME280;35268;42.642;23.308;2023-08-12T06:19:07;94509.34;;;18.03;58.18
49393;BME280;35268;42.642;23.308;2023-08-12T06:21:34;94505.63;;;18.08;57.18
49393;BME280;35268;42.642;23.308;2023-08-12T06:23:59;94512.13;;;18.07;57.42
49393;BME280;35268;42.642;23.308;2023-08-12T06:26:25;94515.38;;;18.12;58.35
49393;BME280;35268;42.642;23.308;2023-08-12T06:28:50;94514.44;;;18.20;57.33
49393;BME280;35268;42.642;23.308;2023-08-12T06:31:16;94509.38;;;18.19;56.24
49393;BME280;35268;42.642;23.308;2023-08-12T06:33:41;94513.41;;;18.25;57.45
49393;BME280;35268;42.642;23.308;2023-08-12T06:36:07;94499.13;;;18.24;55.33
49393;BME280;35268;42.642;23.308;2023-08-12T06:38:32;94496.00;;;18.22;56.40
49393;BME280;35268;42.642;23.308;2023-08-12T06:40:58;94512.78;;;18.32;56.24
49393;BME280;35268;42.642;23.308;2023-08-12T06:43:23;94495.25;;;18.38;56.45
49393;BME280;35268;42.642;23.308;2023-08-12T06:45:48;94493.16;;;18.47;56.39
49393;BME280;35268;42.642;23.308;2023-08-12T06:48:14;94496.47;;;18.56;56.42
49393;BME280;35268;42.642;23.308;2023-08-12T06:50:39;94490.63;;;18.70;55.88
49393;BME280;35268;42.642;23.308;2023-08-12T06:53:05;94490.81;;;18.77;54.82
49393;BME280;35268;42.642;23.308;2023-08-12T06:55:30;94492.66;;;18.89;55.74
49393;BME280;35268;42.642;23.308;2023-08-12T06:57:56;94496.72;;;18.99;54.44
49393;BME280;35268;42.642;23.308;2023-08-12T07:00:21;94498.38;;;19.03;55.17
49393;BME280;35268;42.642;23.308;2023-08-12T07:02:47;94497.06;;;19.13;54.63
49393;BME280;35268;42.642;23.308;2023-08-12T07:05:12;94496.16;;;19.25;54.54
49393;BME280;35268;42.642;23.308;2023-08-12T07:07:38;94494.69;;;19.28;53.70
49393;BME280;35268;42.642;23.308;2023-08-12T07:10:03;94497.88;;;19.33;53.89
49393;BME280;35268;42.642;23.308;2023-08-12T07:12:30;94498.47;;;19.42;54.39
49393;BME280;35268;42.642;23.308;2023-08-12T07:14:56;94484.44;;;19.37;52.64
49393;BME280;35268;42.642;23.308;2023-08-12T07:17:21;94496.88;;;19.41;54.27
49393;BME280;35268;42.642;23.308;2023-08-12T07:19:47;94493.16;;;19.46;53.84
49393;BME280;35268;42.642;23.308;2023-08-12T07:22:12;94491.34;;;19.54;54.15
49393;BME280;35268;42.642;23.308;2023-08-12T07:24:38;94491.09;;;19.59;52.89
49393;BME280;35268;42.642;23.308;2023-08-12T07:27:03;94493.06;;;19.62;52.47
49393;BME280;35268;42.642;23.308;2023-08-12T07:29:29;94490.78;;;19.64;52.19
49393;BME280;35268;42.642;23.308;2023-08-12T07:31:54;94492.91;;;19.71;51.42
49393;BME280;35268;42.642;23.308;2023-08-12T07:34:20;94492.34;;;19.81;51.26
49393;BME280;35268;42.642;23.308;2023-08-12T07:36:45;94490.19;;;19.90;51.22
49393;BME280;35268;42.642;23.308;2023-08-12T07:39:11;94493.41;;;19.96;50.50
49393;BME280;35268;42.642;23.308;2023-08-12T07:41:36;94491.97;;;20.02;50.36
49393;BME280;35268;42.642;23.308;2023-08-12T07:44:03;94489.03;;;20.11;49.63
49393;BME280;35268;42.642;23.308;2023-08-12T07:46:28;94486.13;;;20.19;49.46
49393;BME280;35268;42.642;23.308;2023-08-12T07:48:55;94490.81;;;20.22;48.52
49393;BME280;35268;42.642;23.308;2023-08-12T07:51:21;94485.09;;;20.28;48.48
49393;BME280;35268;42.642;23.308;2023-08-12T07:53:46;94483.31;;;20.35;47.68
49393;BME280;35268;42.642;23.308;2023-08-12T07:56:12;94475.72;;;20.44;48.30
49393;BME280;35268;42.642;23.308;2023-08-12T07:58:37;94471.28;;;20.56;49.63
49393;BME280;35268;42.642;23.308;2023-08-12T08:01:03;94466.34;;;20.61;49.28
49393;BME280;35268;42.642;23.308;2023-08-12T08:03:30;94470.75;;;20.70;49.63
49393;BME280;35268;42.642;23.308;2023-08-12T08:05:55;94467.38;;;20.76;49.81
49393;BME280;35268;42.642;23.308;2023-08-12T08:08:21;94467.13;;;20.85;49.47
49393;BME280;35268;42.642;23.308;2023-08-12T08:10:46;94466.50;;;20.95;48.74
49393;BME280;35268;42.642;23.308;2023-08-12T08:13:12;94461.38;;;20.90;46.77
49393;BME280;35268;42.642;23.308;2023-08-12T08:15:37;94466.16;;;20.97;46.54
49393;BME280;35268;42.642;23.308;2023-08-12T08:18:03;94468.94;;;21.04;46.24
49393;BME280;35268;42.642;23.308;2023-08-12T08:20:30;94469.84;;;21.12;46.15
49393;BME280;35268;42.642;23.308;2023-08-12T08:22:55;94468.81;;;21.20;46.51
49393;BME280;35268;42.642;23.308;2023-08-12T08:25:21;94469.31;;;21.29;45.57
49393;BME280;35268;42.642;23.308;2023-08-12T08:27:47;94466.34;;;21.38;46.18
49393;BME280;35268;42.642;23.308;2023-08-12T08:30:12;94472.69;;;21.46;47.00
49393;BME280;35268;42.642;23.308;2023-08-12T08:32:38;94465.03;;;21.55;45.23
49393;BME280;35268;42.642;23.308;2023-08-12T08:35:04;94469.41;;;21.63;44.99
49393;BME280;35268;42.642;23.308;2023-08-12T08:37:30;94459.78;;;21.69;44.79
49393;BME280;35268;42.642;23.308;2023-08-12T08:39:55;94459.94;;;21.80;44.49
49393;BME280;35268;42.642;23.308;2023-08-12T08:42:24;94452.16;;;21.78;45.14
49393;BME280;35268;42.642;23.308;2023-08-12T08:47:24;94453.88;;;21.94;42.75
49393;BME280;35268;42.642;23.308;2023-08-12T08:49:50;94450.00;;;21.95;42.25
49393;BME280;35268;42.642;23.308;2023-08-12T08:52:16;94447.72;;;21.97;42.96
49393;BME280;35268;42.642;23.308;2023-08-12T08:54:42;94446.19;;;21.99;43.16
49393;BME280;35268;42.642;23.308;2023-08-12T08:57:08;94444.69;;;22.06;43.63
49393;BME280;35268;42.642;23.308;2023-08-12T08:59:34;94442.59;;;22.26;43.41
49393;BME280;35268;42.642;23.308;2023-08-12T09:02:00;94443.94;;;22.46;43.51
49393;BME280;35268;42.642;23.308;2023-08-12T09:04:26;94442.94;;;22.65;42.63
49393;BME280;35268;42.642;23.308;2023-08-12T09:06:53;94444.25;;;22.82;41.56
49393;BME280;35268;42.642;23.308;2023-08-12T09:09:20;94434.19;;;22.90;41.12
49393;BME280;35268;42.642;23.308;2023-08-12T09:11:47;94435.81;;;22.98;41.15
49393;BME280;35268;42.642;23.308;2023-08-12T09:14:13;94435.50;;;23.03;40.42
49393;BME280;35268;42.642;23.308;2023-08-12T09:16:39;94442.81;;;22.99;40.34
49393;BME280;35268;42.642;23.308;2023-08-12T09:19:05;94431.50;;;22.93;40.82
49393;BME280;35268;42.642;23.308;2023-08-12T09:21:30;94433.34;;;22.78;40.96
49393;BME280;35268;42.642;23.308;2023-08-12T09:23:56;94430.66;;;22.82;40.70
49393;BME280;35268;42.642;23.308;2023-08-12T09:26:21;94426.75;;;22.76;41.35
49393;BME280;35268;42.642;23.308;2023-08-12T09:28:48;94426.81;;;22.87;41.49
49393;BME280;35268;42.642;23.308;2023-08-12T09:31:24;94426.09;;;22.97;42.09
49393;BME280;35268;42.642;23.308;2023-08-12T09:33:51;94421.91;;;23.03;40.47
49393;BME280;35268;42.642;23.308;2023-08-12T09:36:16;94415.31;;;23.08;40.32
49393;BME280;35268;42.642;23.308;2023-08-12T09:38:45;94415.78;;;23.20;40.00
49393;BME280;35268;42.642;23.308;2023-08-12T09:41:10;94413.78;;;23.14;40.65
49393;BME280;35268;42.642;23.308;2023-08-12T09:43:42;94409.97;;;23.18;40.34
49393;BME280;35268;42.642;23.308;2023-08-12T09:46:12;94406.50;;;23.32;40.55
49393;BME280;35268;42.642;23.308;2023-08-12T09:48:39;94406.19;;;23.44;39.83
49393;BME280;35268;42.642;23.308;2023-08-12T09:51:04;94407.06;;;23.63;38.61
49393;BME280;35268;42.642;23.308;2023-08-12T09:53:32;94400.09;;;23.76;38.02
49393;BME280;35268;42.642;23.308;2023-08-12T09:56:07;94404.06;;;23.90;38.59
49393;BME280;35268;42.642;23.308;2023-08-12T09:58:36;94393.59;;;24.06;38.84
49393;BME280;35268;42.642;23.308;2023-08-12T10:01:05;94396.72;;;24.22;38.23
49393;BME280;35268;42.642;23.308;2023-08-12T10:03:33;94394.75;;;24.16;36.92
49393;BME280;35268;42.642;23.308;2023-08-12T10:05:59;94385.44;;;24.17;36.96
49393;BME280;35268;42.642;23.308;2023-08-12T10:08:26;94392.44;;;24.18;37.48
49393;BME280;35268;42.642;23.308;2023-08-12T10:10:52;94383.88;;;24.12;37.32
49393;BME280;35268;42.642;23.308;2023-08-12T10:13:18;94384.66;;;24.16;37.07
49393;BME280;35268;42.642;23.308;2023-08-12T10:15:44;94374.16;;;24.18;36.70
49393;BME280;35268;42.642;23.308;2023-08-12T10:18:10;94378.44;;;24.19;37.92
49393;BME280;35268;42.642;23.308;2023-08-12T10:20:36;94383.50;;;24.25;37.65
49393;BME280;35268;42.642;23.308;2023-08-12T10:23:02;94379.19;;;24.13;37.54
49393;BME280;35268;42.642;23.308;2023-08-12T10:25:32;94378.06;;;24.25;38.37
49393;BME280;35268;42.642;23.308;2023-08-12T10:27:58;94366.75;;;24.44;37.70
49393;BME280;35268;42.642;23.308;2023-08-12T10:30:24;94369.13;;;24.56;37.57
49393;BME280;35268;42.642;23.308;2023-08-12T10:32:53;94371.47;;;24.61;36.71
49393;BME280;35268;42.642;23.308;2023-08-12T10:35:18;94375.34;;;24.75;37.02
49393;BME280;35268;42.642;23.308;2023-08-12T10:37:48;94359.75;;;24.86;36.06
49393;BME280;35268;42.642;23.308;2023-08-12T10:40:22;94357.41;;;24.88;35.60
49393;BME280;35268;42.642;23.308;2023-08-12T10:42:49;94363.59;;;25.07;35.36
49393;BME280;35268;42.642;23.308;2023-08-12T10:45:16;94366.31;;;25.14;34.69
49393;BME280;35268;42.642;23.308;2023-08-12T10:47:53;94352.69;;;25.07;34.52
49393;BME280;35268;42.642;23.308;2023-08-12T10:50:34;94344.50;;;25.10;33.55
49393;BME280;35268;42.642;23.308;2023-08-12T10:53:28;94355.00;;;25.15;34.15
49393;BME280;35268;42.642;23.308;2023-08-12T10:56:04;94344.13;;;25.05;33.63
49393;BME280;35268;42.642;23.308;2023-08-12T10:58:35;94341.78;;;25.14;33.08
49393;BME280;35268;42.642;23.308;2023-08-12T11:01:01;94346.03;;;25.29;34.50
49393;BME280;35268;42.642;23.308;2023-08-12T11:03:32;94340.50;;;25.43;33.53
49393;BME280;35268;42.642;23.308;2023-08-12T11:05:59;94333.44;;;25.57;32.56
49393;BME280;35268;42.642;23.308;2023-08-12T11:08:26;94334.22;;;25.61;31.86
49393;BME280;35268;42.642;23.308;2023-08-12T11:10:55;94337.31;;;25.63;32.26
49393;BME280;35268;42.642;23.308;2023-08-12T11:13:21;94329.50;;;25.61;31.77
49393;BME280;35268;42.642;23.308;2023-08-12T11:15:47;94328.66;;;25.79;33.51
49393;BME280;35268;42.642;23.308;2023-08-12T11:18:14;94315.28;;;25.99;33.58
49393;BME280;35268;42.642;23.308;2023-08-12T11:20:42;94319.94;;;26.02;32.55
49393;BME280;35268;42.642;23.308;2023-08-12T11:23:08;94314.84;;;26.08;32.77
49393;BME280;35268;42.642;23.308;2023-08-12T11:25:35;94322.56;;;26.16;32.23
49393;BME280;35268;42.642;23.308;2023-08-12T11:28:01;94318.22;;;26.26;32.85
49393;BME280;35268;42.642;23.308;2023-08-12T11:30:27;94310.66;;;26.41;33.57
49393;BME280;35268;42.642;23.308;2023-08-12T11:32:54;94315.16;;;26.66;33.07
49393;BME280;35268;42.642;23.308;2023-08-12T11:35:21;94320.63;;;27.04;31.41
49393;BME280;35268;42.642;23.308;2023-08-12T11:37:48;94320.84;;;27.24;30.35
49393;BME280;35268;42.642;23.308;2023-08-12T11:40:16;94308.97;;;27.34;29.49
49393;BME280;35268;42.642;23.308;2023-08-12T11:42:43;94312.94;;;27.29;29.65
49393;BME280;35268;42.642;23.308;2023-08-12T11:45:14;94318.03;;;27.27;29.19
49393;BME280;35268;42.642;23.308;2023-08-12T11:47:40;94312.16;;;27.29;29.14
49393;BME280;35268;42.642;23.308;2023-08-12T11:50:09;94311.44;;;27.21;28.95
49393;BME280;35268;42.642;23.308;2023-08-12T11:52:38;94310.81;;;27.06;29.17
49393;BME280;35268;42.642;23.308;2023-08-12T11:55:05;94317.16;;;26.99;29.39
49393;BME280;35268;42.642;23.308;2023-08-12T11:57:32;94307.03;;;26.96;29.16
49393;BME280;35268;42.642;23.308;2023-08-12T12:00:05;94299.84;;;27.10;32.44
49393;BME280;35268;42.642;23.308;2023-08-12T12:02:39;94306.72;;;27.25;30.64
49393;BME280;35268;42.642;23.308;2023-08-12T12:05:08;94301.75;;;27.47;29.20
49393;BME280;35268;42.642;23.308;2023-08-12T12:07:34;94295.66;;;27.67;28.92
49393;BME280;35268;42.642;23.308;2023-08-12T12:09:59;94292.25;;;28.13;29.27
49393;BME280;35268;42.642;23.308;2023-08-12T12:12:25;94290.72;;;28.59;28.00
49393;BME280;35268;42.642;23.308;2023-08-12T12:14:53;94299.38;;;29.01;28.15
49393;BME280;35268;42.642;23.308;2023-08-12T12:17:23;94284.88;;;29.41;24.99
49393;BME280;35268;42.642;23.308;2023-08-12T12:19:56;94284.06;;;29.44;25.84
49393;BME280;35268;42.642;23.308;2023-08-12T12:22:32;94286.13;;;29.56;25.91
49393;BME280;35268;42.642;23.308;2023-08-12T12:25:10;94294.13;;;29.67;25.25
49393;BME280;35268;42.642;23.308;2023-08-12T12:27:37;94281.63;;;29.66;25.19
49393;BME280;35268;42.642;23.308;2023-08-12T12:30:03;94289.31;;;29.55;24.47
49393;BME280;35268;42.642;23.308;2023-08-12T12:32:28;94285.75;;;29.18;25.00
49393;BME280;35268;42.642;23.308;2023-08-12T12:34:54;94282.81;;;28.85;25.60
49393;BME280;35268;42.642;23.308;2023-08-12T12:37:20;94274.97;;;28.64;26.26
49393;BME280;35268;42.642;23.308;2023-08-12T12:39:46;94283.16;;;28.44;24.99
49393;BME280;35268;42.642;23.308;2023-08-12T12:42:12;94276.66;;;28.34;25.41
49393;BME280;35268;42.642;23.308;2023-08-12T12:44:37;94271.25;;;28.54;25.46
49393;BME280;35268;42.642;23.308;2023-08-12T12:47:03;94275.84;;;28.60;26.14
49393;BME280;35268;42.642;23.308;2023-08-12T12:49:28;94269.63;;;28.56;27.79